createdAt,value
2019-01-31T12:58:57.701Z,37.75
2019-01-31T13:01:26.021Z,37.75
2019-01-31T13:03:54.610Z,36.48
2019-01-31T13:06:23.013Z,34.44
2019-01-31T13:08:51.378Z,36.84
2019-01-31T13:11:19.729Z,35.33
2019-01-31T13:13:48.235Z,35.25
2019-01-31T13:16:16.628Z,31.90
2019-01-31T13:18:44.980Z,33.04
2019-01-31T13:21:13.359Z,38.83
2019-01-31T13:23:41.760Z,37.53
2019-01-31T13:26:10.163Z,35.29
2019-01-31T13:28:38.620Z,35.06
2019-01-31T13:31:06.995Z,35.82
2019-01-31T13:33:35.434Z,33.26
2019-01-31T13:36:04.025Z,34.59
2019-01-31T13:38:32.367Z,33.99
2019-01-31T13:41:00.746Z,34.27
2019-01-31T13:43:29.212Z,34.70
2019-01-31T13:45:57.770Z,36.07
2019-01-31T13:48:26.352Z,38.24
2019-01-31T13:50:54.893Z,37.33
2019-01-31T13:53:23.401Z,38.75
2019-01-31T13:55:51.799Z,39.28
2019-01-31T13:58:20.237Z,40.23
2019-01-31T14:00:49.617Z,40.42
2019-01-31T14:03:18.112Z,41.03
2019-01-31T14:05:46.744Z,39.11
2019-01-31T14:08:15.192Z,41.08
2019-01-31T14:10:43.643Z,41.08
2019-01-31T14:13:12.080Z,40.77
2019-01-31T14:15:40.516Z,40.77
2019-01-31T14:18:08.999Z,40.50
2019-01-31T14:20:37.395Z,40.76
2019-01-31T14:23:06.078Z,41.25
2019-01-31T14:25:34.489Z,41.25
2019-01-31T14:28:02.891Z,41.10
2019-01-31T14:30:36.334Z,42.60
2019-01-31T14:33:07.909Z,42.03
2019-01-31T14:35:36.305Z,43.07
2019-01-31T14:38:05.049Z,44.42
2019-01-31T14:40:33.393Z,44.42
2019-01-31T14:43:01.772Z,44.60
2019-01-31T14:45:30.372Z,46.05
2019-01-31T14:47:58.767Z,46.34
2019-01-31T14:50:32.410Z,46.34
2019-01-31T14:53:00.877Z,46.39
2019-01-31T14:55:29.279Z,46.32
2019-01-31T14:57:57.841Z,45.87
2019-01-31T15:00:28.874Z,46.12
2019-01-31T15:02:57.248Z,45.56
2019-01-31T15:05:25.850Z,45.56
2019-01-31T15:07:54.638Z,45.99
2019-01-31T15:10:28.055Z,46.48
2019-01-31T15:12:57.468Z,46.48
2019-01-31T15:15:26.094Z,47.13
2019-01-31T15:17:54.861Z,47.39
2019-01-31T15:20:35.988Z,48.62
2019-01-31T15:22:55.409Z,48.69
2019-01-31T15:25:23.776Z,48.65
2019-01-31T15:27:52.537Z,49.22
2019-01-31T15:30:32.929Z,49.55
2019-01-31T15:33:02.194Z,49.62
2019-01-31T15:35:30.569Z,50.96
2019-01-31T15:37:58.906Z,50.48
2019-01-31T15:40:36.186Z,49.77
2019-01-31T15:43:05.386Z,50.04
2019-01-31T15:45:33.683Z,50.74
2019-01-31T15:48:02.108Z,51.18
2019-01-31T15:50:30.907Z,50.88
2019-01-31T15:52:59.298Z,50.78
2019-01-31T15:55:28.153Z,51.20
2019-01-31T15:57:56.634Z,51.22
2019-01-31T16:00:40.907Z,51.55
2019-01-31T16:03:11.435Z,52.17
2019-01-31T16:05:39.842Z,52.92
2019-01-31T16:08:08.762Z,52.70
2019-01-31T16:10:37.107Z,52.46
2019-01-31T16:13:06.267Z,52.35
2019-01-31T16:15:34.791Z,52.85
2019-01-31T16:18:03.218Z,52.64
2019-01-31T16:20:31.570Z,52.13
2019-01-31T16:23:00.010Z,52.58
2019-01-31T16:25:28.883Z,53.41
2019-01-31T16:27:57.401Z,53.40
2019-01-31T16:30:26.412Z,53.72
2019-01-31T16:32:55.251Z,54.52
2019-01-31T16:35:23.678Z,54.62
2019-01-31T16:37:52.211Z,54.93
2019-01-31T16:40:20.735Z,54.82
2019-01-31T16:42:49.279Z,55.00
2019-01-31T16:45:18.415Z,55.13
2019-01-31T16:47:46.902Z,55.62
2019-01-31T16:50:23.199Z,55.76
2019-01-31T16:52:51.744Z,55.53
2019-01-31T16:55:25.445Z,56.68
2019-01-31T16:57:54.169Z,56.63
2019-01-31T17:00:24.968Z,56.65
2019-01-31T17:02:53.331Z,56.95
2019-01-31T17:05:24.059Z,56.34
2019-01-31T17:07:52.402Z,55.83
2019-01-31T17:10:21.159Z,56.08
2019-01-31T17:12:49.655Z,56.22
2019-01-31T17:15:19.468Z,57.68
2019-01-31T17:17:48.065Z,58.41
2019-01-31T17:20:28.324Z,58.10
2019-01-31T17:22:56.760Z,57.41
2019-01-31T17:25:25.345Z,57.05
2019-01-31T17:27:53.863Z,57.46
2019-01-31T17:30:26.906Z,57.11
2019-01-31T17:32:55.375Z,58.11
2019-01-31T17:35:23.976Z,58.10
2019-01-31T17:37:52.419Z,57.77
2019-01-31T17:40:29.363Z,58.42
2019-01-31T17:42:57.727Z,58.66
2019-01-31T17:45:30.515Z,57.62
2019-01-31T17:47:58.115Z,57.80
2019-01-31T17:50:26.794Z,58.48
2019-01-31T17:52:55.180Z,58.57
2019-01-31T17:55:25.577Z,58.65
2019-01-31T17:57:54.949Z,58.49
2019-01-31T18:00:36.333Z,57.73
2019-01-31T18:03:06.040Z,58.71
2019-01-31T18:05:34.442Z,58.19
2019-01-31T18:08:02.934Z,57.20
2019-01-31T18:10:31.268Z,58.19
2019-01-31T18:12:59.607Z,57.29
2019-01-31T18:15:28.263Z,57.03
2019-01-31T18:17:56.603Z,57.59
2019-01-31T18:20:25.343Z,57.40
2019-01-31T18:22:53.838Z,59.06
2019-01-31T18:25:22.312Z,59.14
2019-01-31T18:27:53.209Z,59.92
2019-01-31T18:30:35.490Z,59.97
2019-01-31T18:33:04.598Z,59.86
2019-01-31T18:35:32.938Z,59.86
2019-01-31T18:38:01.426Z,59.43
2019-01-31T18:40:31.884Z,58.89
2019-01-31T18:43:00.318Z,59.29
2019-01-31T18:45:30.684Z,59.96
2019-01-31T18:47:59.476Z,59.71
2019-01-31T18:50:33.004Z,59.63
2019-01-31T18:53:01.444Z,59.77
2019-01-31T18:55:30.128Z,58.73
2019-01-31T18:57:58.671Z,58.31
2019-01-31T19:00:41.953Z,58.06
2019-01-31T19:03:10.411Z,58.22
2019-01-31T19:05:39.369Z,58.37
2019-01-31T19:08:09.033Z,57.91
2019-01-31T19:10:43.382Z,57.85
2019-01-31T19:13:07.762Z,57.85
2019-01-31T19:15:36.353Z,57.38
2019-01-31T19:18:06.509Z,57.52
2019-01-31T19:20:35.329Z,57.78
2019-01-31T19:23:05.722Z,57.81
2019-01-31T19:25:34.235Z,58.08
2019-01-31T19:28:03.859Z,58.16
2019-01-31T19:30:34.251Z,57.99
2019-01-31T19:33:02.998Z,58.05
2019-01-31T19:35:31.468Z,57.82
2019-01-31T19:38:02.367Z,58.74
2019-01-31T19:40:38.138Z,57.69
2019-01-31T19:43:06.651Z,57.74
2019-01-31T19:45:43.262Z,57.35
2019-01-31T19:48:11.931Z,57.90
2019-01-31T19:50:43.401Z,58.11
2019-01-31T19:53:10.571Z,58.70
2019-01-31T19:55:39.459Z,57.99
2019-01-31T19:58:08.213Z,57.66
2019-01-31T20:00:36.771Z,57.76
2019-01-31T20:03:07.206Z,57.92
2019-01-31T20:05:35.889Z,58.81
2019-01-31T20:08:05.637Z,59.28
2019-01-31T20:10:34.092Z,59.13
2019-01-31T20:13:03.674Z,59.74
2019-01-31T20:15:32.210Z,60.49
2019-01-31T20:18:00.792Z,60.89
2019-01-31T20:20:30.101Z,60.52
2019-01-31T20:23:00.739Z,60.16
2019-01-31T20:25:30.297Z,60.37
2019-01-31T20:28:01.592Z,59.97
2019-01-31T20:30:35.486Z,60.53
2019-01-31T20:33:09.133Z,59.97
2019-01-31T20:35:39.968Z,60.05
2019-01-31T20:38:16.259Z,60.31
2019-01-31T20:40:46.187Z,60.06
2019-01-31T20:43:19.148Z,59.22
2019-01-31T20:45:47.709Z,58.14
2019-01-31T20:48:17.254Z,58.01
2019-01-31T20:50:46.382Z,57.95
2019-01-31T20:53:17.219Z,58.22
2019-01-31T20:55:47.808Z,58.69
2019-01-31T20:58:16.642Z,59.17
2019-01-31T21:00:45.549Z,59.36
2019-01-31T21:03:15.081Z,59.41
2019-01-31T21:05:43.617Z,59.87
2019-01-31T21:08:12.161Z,59.86
2019-01-31T21:10:40.784Z,60.62
2019-01-31T21:13:09.163Z,61.00
2019-01-31T21:15:38.009Z,60.97
